Time;durP1;ratioP1;P1;durP2;ratioP2;P2;SDS_P1;SDS_P2;PMS_P1;PMS_P2;Temp;Humidity;BMP_temperature;BMP_pressure;BME280_temperature;BME280_humidity;BME280_pressure;Samples;Min_cycle;Max_cycle;Signal;HPM_P1;HPM_P2
2024/02/05 00:00:06;;;;;;;6.70;1.80;;;;;;;6.71;100.00;99596.99;220825;1262;140968;-89
2024/02/05 00:05:08;;;;;;;4.70;1.70;;;;;;;6.71;100.00;99587.39;221694;1262;99176;-93
2024/02/05 00:10:10;;;;;;;5.30;1.90;;;;;;;6.72;100.00;99582.94;220751;1262;139373;-93
2024/02/05 00:15:10;;;;;;;3.60;2.00;;;;;;;6.72;100.00;99581.16;221434;1267;138311;-89
2024/02/05 00:20:12;;;;;;;4.80;1.70;;;;;;;6.72;100.00;99572.79;220674;1262;139365;-87
2024/02/05 00:25:12;;;;;;;4.50;2.20;;;;;;;6.71;100.00;99578.33;221265;1262;138431;-90
2024/02/05 00:30:13;;;;;;;6.80;2.10;;;;;;;6.70;100.00;99574.57;220447;1263;140189;-90
2024/02/05 00:35:14;;;;;;;6.50;2.10;;;;;;;6.69;100.00;99571.83;221550;1264;138402;-87
2024/02/05 00:40:15;;;;;;;4.30;1.70;;;;;;;6.68;100.00;99558.83;221352;1262;139770;-87
2024/02/05 00:45:16;;;;;;;4.20;2.00;;;;;;;6.66;100.00;99555.61;222233;1262;138518;-88
2024/02/05 00:50:16;;;;;;;5.00;2.20;;;;;;;6.65;100.00;99546.15;221295;1263;139605;-88
2024/02/05 00:55:17;;;;;;;5.40;1.60;;;;;;;6.63;100.00;99545.11;221834;1262;139424;-88
2024/02/05 01:00:18;;;;;;;5.80;2.10;;;;;;;6.62;100.00;99544.69;221269;1262;160561;-89
2024/02/05 01:05:18;;;;;;;4.90;1.90;;;;;;;6.60;100.00;99540.70;221691;1262;138432;-88
2024/02/05 01:10:19;;;;;;;5.30;1.80;;;;;;;6.59;100.00;99532.48;220644;1263;140734;-87
2024/02/05 01:15:20;;;;;;;5.10;1.80;;;;;;;6.59;100.00;99518.81;221319;1263;138384;-88
2024/02/05 01:20:20;;;;;;;2.70;1.40;;;;;;;6.59;100.00;99509.36;220717;1263;139897;-88
2024/02/05 01:25:21;;;;;;;5.40;2.10;;;;;;;6.57;100.00;99501.06;221348;1262;138446;-88
2024/02/05 01:30:21;;;;;;;2.90;1.40;;;;;;;6.57;100.00;99500.75;220726;1262;139933;-88
2024/02/05 01:35:22;;;;;;;4.20;1.50;;;;;;;6.55;100.00;99501.65;221207;1263;138434;-89
2024/02/05 01:40:23;;;;;;;2.00;1.00;;;;;;;6.52;100.00;99506.48;220792;1263;139505;-88
2024/02/05 01:45:23;;;;;;;5.70;1.70;;;;;;;6.51;100.00;99504.34;222683;1266;139110;-90
2024/02/05 01:50:24;;;;;;;2.60;1.30;;;;;;;6.50;100.00;99505.36;220590;1266;140492;-89
2024/02/05 01:55:28;;;;;;;4.30;1.50;;;;;;;6.47;100.00;99498.05;221087;1266;138429;-89
2024/02/05 02:00:28;;;;;;;1.20;1.00;;;;;;;6.46;100.00;99498.11;220765;1262;139953;-91
2024/02/05 02:05:29;;;;;;;1.70;1.30;;;;;;;6.43;100.00;99490.48;221137;1263;138543;-89
2024/02/05 02:10:31;;;;;;;2.60;1.10;;;;;;;6.44;100.00;99484.58;220732;1263;139898;-88
2024/02/05 02:15:33;;;;;;;3.30;0.90;;;;;;;6.43;100.00;99478.95;221390;1266;138328;-87
2024/02/05 02:20:43;;;;;;;2.00;1.20;;;;;;;6.44;100.00;99471.30;220727;1263;139745;-87
2024/02/05 02:25:48;;;;;;;5.10;1.30;;;;;;;6.45;100.00;99470.77;221333;1262;138426;-86
2024/02/05 02:30:50;;;;;;;4.00;1.50;;;;;;;6.45;100.00;99469.83;220726;1263;141423;-87
2024/02/05 02:36:00;;;;;;;4.30;1.60;;;;;;;6.44;100.00;99464.98;221544;1263;138926;-87
2024/02/05 02:41:03;;;;;;;1.90;1.30;;;;;;;6.44;100.00;99457.02;221212;1267;139569;-89
2024/02/05 02:46:05;;;;;;;1.90;1.30;;;;;;;6.44;100.00;99451.16;221793;1263;138961;-89
2024/02/05 02:51:06;;;;;;;4.80;1.40;;;;;;;6.44;100.00;99444.98;220989;1262;140713;-87
2024/02/05 02:56:06;;;;;;;3.10;1.10;;;;;;;6.45;100.00;99446.80;221934;1263;139449;-87
2024/02/05 03:01:07;;;;;;;2.30;1.10;;;;;;;6.45;100.00;99446.27;221281;1262;140081;-85
2024/02/05 03:06:07;;;;;;;4.10;1.20;;;;;;;6.47;100.00;99440.17;221846;1263;138696;-87
2024/02/05 03:11:07;;;;;;;1.80;0.90;;;;;;;6.48;100.00;99435.44;221373;1263;139686;-87
2024/02/05 03:16:08;;;;;;;1.90;1.20;;;;;;;6.49;100.00;99431.77;222137;1263;97078;-88
2024/02/05 03:21:09;;;;;;;3.10;1.50;;;;;;;6.50;100.00;99427.17;221158;1266;140397;-88
2024/02/05 03:26:10;;;;;;;2.10;1.10;;;;;;;6.52;100.00;99427.90;221572;1266;138516;-89
2024/02/05 03:31:10;;;;;;;1.50;0.90;;;;;;;6.53;100.00;99441.74;220757;1268;139641;-87
2024/02/05 03:36:11;;;;;;;1.90;1.00;;;;;;;6.53;100.00;99438.62;221202;1263;138655;-88
2024/02/05 03:41:11;;;;;;;2.30;1.10;;;;;;;6.55;100.00;99441.83;220760;1262;139948;-87
2024/02/05 03:46:12;;;;;;;3.50;0.90;;;;;;;6.56;100.00;99440.13;221267;1262;98040;-87
2024/02/05 03:51:13;;;;;;;2.10;1.00;;;;;;;6.57;100.00;99437.96;221266;1263;139619;-88
2024/02/05 03:56:16;;;;;;;1.70;0.90;;;;;;;6.59;100.00;99442.20;221239;1262;138500;-87
2024/02/05 04:01:16;;;;;;;4.40;1.80;;;;;;;6.61;100.00;99440.41;220568;1263;139419;-86
2024/02/05 04:06:17;;;;;;;4.30;1.20;;;;;;;6.63;100.00;99437.54;221117;1268;138987;-86
2024/02/05 04:11:17;;;;;;;1.60;1.10;;;;;;;6.65;100.00;99435.23;220621;1263;139827;-87
2024/02/05 04:16:18;;;;;;;2.00;1.10;;;;;;;6.66;100.00;99429.54;221386;1263;98972;-87
2024/02/05 04:21:18;;;;;;;1.20;0.90;;;;;;;6.70;100.00;99427.71;220611;1266;139823;-86
2024/02/05 04:26:19;;;;;;;1.80;0.90;;;;;;;6.72;100.00;99429.69;221175;1267;139124;-89
2024/02/05 04:31:20;;;;;;;4.40;1.20;;;;;;;6.74;100.00;99427.75;220553;1263;139539;-85
2024/02/05 04:36:20;;;;;;;2.00;1.10;;;;;;;6.76;100.00;99416.28;221095;1263;138899;-86
2024/02/05 04:41:21;;;;;;;3.80;1.60;;;;;;;6.78;100.00;99409.43;220589;1263;139568;-86
2024/02/05 04:46:22;;;;;;;2.70;1.30;;;;;;;6.80;100.00;99408.43;221034;1267;109511;-86
2024/02/05 04:51:23;;;;;;;3.70;1.80;;;;;;;6.84;100.00;99405.19;220572;1263;139528;-90
2024/02/05 04:56:23;;;;;;;2.30;1.40;;;;;;;6.86;100.00;99408.27;221109;1262;138556;-87
2024/02/05 05:01:24;;;;;;;2.10;1.50;;;;;;;6.90;100.00;99411.48;220556;1263;139744;-85
2024/02/05 05:06:25;;;;;;;2.20;1.30;;;;;;;6.91;100.00;99418.45;221182;1263;138884;-86
2024/02/05 05:11:25;;;;;;;1.70;1.10;;;;;;;6.95;100.00;99418.42;220531;1262;139787;-86
2024/02/05 05:16:27;;;;;;;1.60;1.20;;;;;;;6.97;100.00;99419.93;221253;1263;96640;-85
2024/02/05 05:21:28;;;;;;;2.30;1.10;;;;;;;7.00;100.00;99424.41;220584;1267;139668;-86
2024/02/05 05:26:29;;;;;;;3.00;1.10;;;;;;;7.02;100.00;99431.08;221256;1266;138507;-86
2024/02/05 05:31:30;;;;;;;2.50;1.40;;;;;;;7.05;100.00;99437.42;220519;1263;139696;-89
2024/02/05 05:36:32;;;;;;;5.40;1.70;;;;;;;7.09;100.00;99446.85;221276;1263;138621;-85
2024/02/05 05:41:35;;;;;;;2.10;1.30;;;;;;;7.10;100.00;99454.27;221379;1263;139918;-86
2024/02/05 05:46:35;;;;;;;2.60;1.20;;;;;;;7.12;100.00;99454.38;221798;1266;110880;-88
2024/02/05 05:51:36;;;;;;;6.30;1.60;;;;;;;7.13;100.00;99461.58;221274;1263;139705;-86
2024/02/05 05:56:36;;;;;;;2.80;0.90;;;;;;;7.14;100.00;99474.95;221839;1263;138477;-89
2024/02/05 06:01:37;;;;;;;0.80;0.60;;;;;;;7.13;100.00;99480.50;221255;1263;139905;-87
2024/02/05 06:06:37;;;;;;;2.10;1.00;;;;;;;7.14;100.00;99485.42;221323;1263;138551;-84
2024/02/05 06:11:38;;;;;;;0.80;0.80;;;;;;;7.15;100.00;99490.52;221126;1263;140025;-85
2024/02/05 06:16:38;;;;;;;0.90;0.80;;;;;;;7.15;100.00;99494.34;221785;1263;97510;-85
2024/02/05 06:21:39;;;;;;;4.40;1.10;;;;;;;7.14;100.00;99495.12;221058;1262;139213;-86
2024/02/05 06:26:39;;;;;;;1.30;0.90;;;;;;;7.14;100.00;99504.03;221178;1263;138693;-86
2024/02/05 06:31:40;;;;;;;2.00;1.00;;;;;;;7.13;100.00;99505.43;220756;1263;139727;-86
2024/02/05 06:36:40;;;;;;;1.40;0.90;;;;;;;7.14;100.00;99506.14;221177;1268;139825;-85
2024/02/05 06:41:40;;;;;;;1.40;1.00;;;;;;;7.15;100.00;99507.71;220856;1267;139284;-91
2024/02/05 06:46:41;;;;;;;1.20;1.00;;;;;;;7.16;100.00;99522.11;221475;1263;97956;-89
2024/02/05 06:51:41;;;;;;;1.10;0.80;;;;;;;7.16;100.00;99522.50;221225;1262;139292;-91
2024/02/05 06:56:42;;;;;;;1.70;1.00;;;;;;;7.17;100.00;99526.02;222720;1266;137410;-91
2024/02/05 07:01:42;;;;;;;1.30;1.00;;;;;;;7.17;100.00;99518.85;220861;1266;139700;-90
2024/02/05 07:06:43;;;;;;;2.50;0.90;;;;;;;7.17;100.00;99520.10;221753;1263;138895;-90
2024/02/05 07:11:43;;;;;;;3.90;1.00;;;;;;;7.19;100.00;99538.01;221601;1266;139699;-89
2024/02/05 07:16:43;;;;;;;3.90;1.70;;;;;;;7.20;100.00;99555.07;222209;1266;97907;-89
2024/02/05 07:21:47;;;;;;;6.10;2.70;;;;;;;7.20;100.00;99562.02;221737;1266;140028;-92
2024/02/05 07:26:48;;;;;;;8.50;3.70;;;;;;;7.22;100.00;99558.13;222948;1263;138230;-90
2024/02/05 07:31:48;;;;;;;4.00;1.90;;;;;;;7.23;100.00;99561.50;221659;1266;140029;-90
2024/02/05 07:36:49;;;;;;;3.40;1.50;;;;;;;7.25;100.00;99575.60;222509;1264;138501;-92
2024/02/05 07:41:49;;;;;;;1.90;1.00;;;;;;;7.26;100.00;99569.11;221037;1263;141769;-92
2024/02/05 07:46:50;;;;;;;3.10;1.20;;;;;;;7.26;100.00;99575.92;222135;1266;96431;-92
2024/02/05 07:52:00;;;;;;;4.20;1.60;;;;;;;7.29;100.00;99577.61;221218;1264;139501;-94
2024/02/05 07:57:04;;;;;;;1.00;0.70;;;;;;;7.29;100.00;99580.34;222498;1263;137218;-95
2024/02/05 08:02:06;;;;;;;3.70;1.70;;;;;;;7.27;100.00;99593.22;222439;1264;139519;-94
2024/02/05 08:07:07;;;;;;;4.00;1.60;;;;;;;7.28;100.00;99597.85;221376;1264;138602;-94
2024/02/05 08:12:12;;;;;;;4.20;2.40;;;;;;;7.33;100.00;99607.82;220507;1264;139365;-93
2024/02/05 08:17:12;;;;;;;5.30;2.10;;;;;;;7.36;100.00;99618.40;220970;1265;138667;-90
2024/02/05 08:22:13;;;;;;;2.60;1.40;;;;;;;7.38;100.00;99622.50;220645;1264;139918;-89
2024/02/05 08:27:13;;;;;;;2.00;1.20;;;;;;;7.39;100.00;99618.52;221247;1265;138829;-91
2024/02/05 08:32:14;;;;;;;1.60;1.00;;;;;;;7.38;100.00;99613.98;220760;1265;139804;-91
2024/02/05 08:37:15;;;;;;;2.50;1.10;;;;;;;7.38;100.00;99614.45;221161;1264;138645;-89
2024/02/05 08:42:18;;;;;;;2.50;1.20;;;;;;;7.37;100.00;99614.98;220512;1264;140258;-90
2024/02/05 08:47:19;;;;;;;2.40;1.00;;;;;;;7.37;100.00;99612.24;221471;1264;138573;-91
2024/02/05 08:52:22;;;;;;;4.10;1.50;;;;;;;7.38;100.00;99615.23;221208;1264;140874;-94
2024/02/05 08:57:23;;;;;;;2.40;1.00;;;;;;;7.44;100.00;99619.27;222347;1264;138968;-89
2024/02/05 09:02:24;;;;;;;2.10;0.80;;;;;;;7.45;100.00;99625.32;220522;1264;139628;-88
2024/02/05 09:07:27;;;;;;;4.00;1.10;;;;;;;7.48;100.00;99629.09;220644;1264;140093;-88
2024/02/05 09:12:27;;;;;;;2.80;1.20;;;;;;;7.49;100.00;99625.59;220241;1264;139663;-90
2024/02/05 09:17:28;;;;;;;9.20;2.90;;;;;;;7.49;100.00;99628.58;220859;1266;138825;-90
2024/02/05 09:22:29;;;;;;;17.60;5.40;;;;;;;7.49;100.00;99624.48;220340;1264;139770;-89
2024/02/05 09:27:29;;;;;;;4.20;1.60;;;;;;;7.50;100.00;99623.72;220711;1266;138587;-89
2024/02/05 09:32:30;;;;;;;3.70;1.60;;;;;;;7.52;100.00;99627.04;220325;1264;140815;-88
2024/02/05 09:37:30;;;;;;;4.20;1.40;;;;;;;7.52;100.00;99634.55;220706;1264;138682;-87
2024/02/05 09:42:31;;;;;;;5.70;2.90;;;;;;;7.51;100.00;99630.85;220145;1266;139181;-88
2024/02/05 09:47:32;;;;;;;3.90;2.20;;;;;;;7.50;100.00;99629.36;220675;1265;139357;-87
2024/02/05 09:52:35;;;;;;;4.20;1.50;;;;;;;7.51;100.00;99619.90;220477;1266;139612;-87
2024/02/05 09:57:36;;;;;;;2.00;1.10;;;;;;;7.51;100.00;99623.82;220894;1264;138713;-88
2024/02/05 10:02:38;;;;;;;3.30;1.00;;;;;;;7.50;100.00;99625.14;221112;1264;139961;-88
2024/02/05 10:07:42;;;;;;;4.30;1.50;;;;;;;7.49;100.00;99628.73;220632;1264;138621;-87
2024/02/05 10:12:45;;;;;;;2.70;0.80;;;;;;;7.48;100.00;99626.91;220371;1267;139592;-88
2024/02/05 10:17:46;;;;;;;2.60;1.10;;;;;;;7.46;100.00;99622.60;220746;1266;138775;-87
2024/02/05 10:22:47;;;;;;;1.90;0.90;;;;;;;7.50;100.00;99634.12;220359;1264;139360;-89
2024/02/05 10:27:48;;;;;;;3.60;1.20;;;;;;;7.55;100.00;99626.66;220605;1264;562608;-88
2024/02/05 10:32:58;;;;;;;5.90;1.40;;;;;;;7.58;100.00;99627.56;220233;1264;139749;-89
2024/02/05 10:38:09;;;;;;;3.10;1.30;;;;;;;7.61;100.00;99628.77;220678;1265;139640;-89
2024/02/05 10:43:10;;;;;;;4.70;1.20;;;;;;;7.66;100.00;99622.48;220459;1266;139687;-89
2024/02/05 10:48:11;;;;;;;3.90;1.20;;;;;;;7.68;100.00;99623.13;221114;1266;138640;-88
2024/02/05 10:53:13;;;;;;;3.00;1.20;;;;;;;7.69;100.00;99620.32;220603;1267;140156;-89
2024/02/05 10:58:14;;;;;;;5.40;1.50;;;;;;;7.70;100.00;99610.46;220867;1265;98030;-88
2024/02/05 11:03:18;;;;;;;2.90;1.40;;;;;;;7.74;100.00;99613.31;221366;1263;139286;-88
2024/02/05 11:08:24;;;;;;;5.20;1.70;;;;;;;7.73;100.00;99617.92;220874;1264;139729;-87
2024/02/05 11:13:42;;;;;;;3.10;1.60;;;;;;;7.73;100.00;99625.36;220779;1264;139505;-87
2024/02/05 11:18:50;;;;;;;2.30;1.40;;;;;;;7.74;100.00;99610.27;220694;1266;138479;-87
2024/02/05 11:23:52;;;;;;;3.30;1.20;;;;;;;7.75;100.00;99607.07;220290;1264;140137;-87
2024/02/05 11:28:54;;;;;;;2.40;1.20;;;;;;;7.76;100.00;99603.64;220907;1266;105682;-87
2024/02/05 11:33:58;;;;;;;1.80;1.00;;;;;;;7.77;100.00;99600.75;220146;1266;139679;-87
2024/02/05 11:39:09;;;;;;;3.30;1.50;;;;;;;7.79;100.00;99595.14;220740;1268;139324;-86
2024/02/05 11:44:12;;;;;;;1.60;0.90;;;;;;;7.80;100.00;99600.55;220044;1268;139264;-86
2024/02/05 11:49:13;;;;;;;5.70;1.00;;;;;;;7.78;100.00;99597.71;220784;1266;139124;-85
2024/02/05 11:54:14;;;;;;;4.50;2.20;;;;;;;7.79;100.00;99598.73;219942;1268;140238;-86
2024/02/05 11:59:15;;;;;;;4.40;2.10;;;;;;;7.77;100.00;99599.97;220738;1264;139121;-86
2024/02/05 12:04:17;;;;;;;5.30;1.70;;;;;;;7.81;100.00;99606.98;220963;1265;139420;-86
2024/02/05 12:09:18;;;;;;;4.70;1.90;;;;;;;7.81;100.00;99598.05;220813;1266;138926;-85
2024/02/05 12:14:20;;;;;;;7.70;2.60;;;;;;;7.81;100.00;99599.92;220169;1265;140270;-85
2024/02/05 12:19:22;;;;;;;4.90;2.30;;;;;;;7.82;100.00;99598.14;220841;1267;139191;-85
2024/02/05 12:24:29;;;;;;;5.00;2.10;;;;;;;7.83;100.00;99595.70;220309;1264;140338;-85
2024/02/05 12:29:29;;;;;;;6.60;2.20;;;;;;;7.82;100.00;99602.27;220426;1264;139346;-85
2024/02/05 12:34:30;;;;;;;8.90;3.40;;;;;;;7.84;100.00;99603.48;220355;1266;140225;-84
2024/02/05 12:39:30;;;;;;;9.50;3.10;;;;;;;7.84;100.00;99599.55;220704;1266;138940;-84
2024/02/05 12:44:31;;;;;;;6.90;3.30;;;;;;;7.83;100.00;99596.11;220273;1266;139867;-85
2024/02/05 12:49:32;;;;;;;5.80;2.30;;;;;;;7.83;100.00;99597.42;220820;1266;139160;-85
2024/02/05 12:54:36;;;;;;;9.60;4.10;;;;;;;7.83;100.00;99594.23;220109;1264;139492;-85
2024/02/05 12:59:36;;;;;;;8.20;3.00;;;;;;;7.85;100.00;99592.67;220650;1265;138642;-84
2024/02/05 13:04:37;;;;;;;7.90;2.30;;;;;;;7.85;100.00;99583.05;220329;1266;139820;-85
2024/02/05 13:09:38;;;;;;;6.60;2.30;;;;;;;7.88;100.00;99582.22;220799;1266;138821;-85
2024/02/05 13:14:39;;;;;;;5.70;3.10;;;;;;;7.87;100.00;99590.59;220278;1264;139659;-85
2024/02/05 13:19:39;;;;;;;7.50;3.10;;;;;;;7.84;100.00;99589.70;220968;1266;138515;-85
2024/02/05 13:24:43;;;;;;;8.60;2.70;;;;;;;7.82;100.00;99589.92;220272;1264;139506;-84
2024/02/05 13:29:43;;;;;;;7.20;2.90;;;;;;;7.82;100.00;99590.55;220686;1264;138983;-84
2024/02/05 13:34:44;;;;;;;8.80;3.50;;;;;;;7.82;100.00;99587.80;220310;1264;139023;-84
2024/02/05 13:39:44;;;;;;;9.40;3.70;;;;;;;7.82;100.00;99594.21;220776;1263;138864;-84
2024/02/05 13:44:44;;;;;;;9.40;3.80;;;;;;;7.84;100.00;99599.09;220363;1264;139646;-84
2024/02/05 13:49:45;;;;;;;9.30;3.60;;;;;;;7.87;100.00;99594.66;220849;1267;138575;-84
2024/02/05 13:54:46;;;;;;;10.10;4.10;;;;;;;7.90;100.00;99596.33;219918;1266;139517;-84
2024/02/05 13:59:46;;;;;;;11.50;5.20;;;;;;;7.90;100.00;99589.91;219771;1264;139391;-84
2024/02/05 14:04:49;;;;;;;11.50;5.10;;;;;;;7.89;100.00;99583.32;219235;1268;139669;-84
2024/02/05 14:09:50;;;;;;;12.50;5.40;;;;;;;7.89;100.00;99582.77;219894;1266;138651;-84
2024/02/05 14:14:50;;;;;;;15.10;7.10;;;;;;;7.89;100.00;99580.27;219363;1267;139799;-84
2024/02/05 14:19:51;;;;;;;11.80;6.60;;;;;;;7.85;100.00;99572.09;220081;1266;235470;-84
2024/02/05 14:24:52;;;;;;;9.40;5.40;;;;;;;7.82;100.00;99576.77;219631;1264;139687;-84
2024/02/05 14:29:53;;;;;;;11.60;4.60;;;;;;;7.81;100.00;99578.09;219711;1266;138791;-85
2024/02/05 14:34:53;;;;;;;12.40;4.60;;;;;;;7.82;100.00;99566.44;219971;1263;139485;-84
2024/02/05 14:39:54;;;;;;;8.80;3.20;;;;;;;7.86;100.00;99566.94;219718;1268;139855;-84
2024/02/05 14:44:58;;;;;;;7.20;3.00;;;;;;;7.94;100.00;99559.33;220425;1266;139603;-84
2024/02/05 14:49:58;;;;;;;8.90;3.00;;;;;;;8.04;100.00;99559.33;219711;1268;140043;-85
2024/02/05 14:55:00;;;;;;;10.40;3.20;;;;;;;8.10;100.00;99563.44;220250;1266;138602;-85
2024/02/05 15:00:06;;;;;;;6.60;2.30;;;;;;;8.15;100.00;99566.05;219482;1266;139737;-83
2024/02/05 15:05:11;;;;;;;9.40;2.90;;;;;;;8.22;100.00;99560.51;220220;1264;111526;-84
2024/02/05 15:10:11;;;;;;;10.40;3.40;;;;;;;8.25;100.00;99565.38;219716;1264;140235;-86
2024/02/05 15:15:12;;;;;;;10.70;3.40;;;;;;;8.30;100.00;99569.16;220045;1264;139221;-85
2024/02/05 15:20:13;;;;;;;8.10;3.40;;;;;;;8.32;100.00;99572.55;219438;1268;140008;-82
2024/02/05 15:25:14;;;;;;;11.70;4.00;;;;;;;8.32;100.00;99566.20;220244;1268;138674;-83
2024/02/05 15:30:15;;;;;;;13.70;4.40;;;;;;;8.32;100.00;99569.96;220046;1266;139882;-85
2024/02/05 15:35:16;;;;;;;10.70;5.00;;;;;;;8.33;100.00;99569.19;220255;1263;138773;-86
2024/02/05 15:40:16;;;;;;;9.40;3.20;;;;;;;8.34;100.00;99570.29;219842;1266;141664;-85
2024/02/05 15:45:17;;;;;;;11.20;3.70;;;;;;;8.33;100.00;99574.83;220183;1268;138603;-86
2024/02/05 15:50:18;;;;;;;15.70;6.40;;;;;;;8.35;100.00;99570.30;219505;1266;162706;-85
2024/02/05 15:55:18;;;;;;;11.00;3.00;;;;;;;8.34;100.00;99572.41;221374;1264;138821;-86
2024/02/05 16:00:18;;;;;;;8.90;3.40;;;;;;;8.35;100.00;99568.10;220589;1268;210801;-88
2024/02/05 16:05:20;;;;;;;10.10;3.20;;;;;;;8.35;100.00;99574.13;220885;1266;139697;-86
2024/02/05 16:10:20;;;;;;;9.30;3.00;;;;;;;8.35;100.00;99575.54;220742;1266;140784;-86
2024/02/05 16:15:21;;;;;;;8.90;3.30;;;;;;;8.34;100.00;99585.25;221575;1266;138797;-88
2024/02/05 16:20:22;;;;;;;7.50;3.20;;;;;;;8.34;100.00;99593.64;220511;1264;162684;-85
2024/02/05 16:25:24;;;;;;;9.30;3.60;;;;;;;8.35;100.00;99600.45;220582;1268;139028;-87
2024/02/05 16:30:25;;;;;;;10.40;3.80;;;;;;;8.36;100.00;99599.13;219404;1267;140767;-85
2024/02/05 16:35:26;;;;;;;10.30;3.90;;;;;;;8.33;100.00;99601.45;220108;1267;138625;-83
2024/02/05 16:40:27;;;;;;;7.30;3.00;;;;;;;8.32;100.00;99602.93;219742;1268;139850;-88
2024/02/05 16:45:27;;;;;;;7.40;3.50;;;;;;;8.30;100.00;99601.20;220224;1264;138259;-85
2024/02/05 16:50:27;;;;;;;10.00;3.80;;;;;;;8.29;100.00;99605.81;219419;1268;139523;-86
2024/02/05 16:55:28;;;;;;;9.30;3.70;;;;;;;8.28;100.00;99612.31;220188;1268;138680;-85
2024/02/05 17:00:29;;;;;;;9.00;4.20;;;;;;;8.26;100.00;99611.91;219462;1264;139778;-86
2024/02/05 17:05:29;;;;;;;10.80;4.50;;;;;;;8.24;100.00;99606.56;220109;1268;138602;-86
2024/02/05 17:10:30;;;;;;;13.80;4.10;;;;;;;8.25;100.00;99610.57;219908;1269;140502;-87
2024/02/05 17:15:33;;;;;;;15.10;5.30;;;;;;;8.25;100.00;99603.99;220083;1268;138572;-86
2024/02/05 17:20:34;;;;;;;13.00;5.70;;;;;;;8.25;100.00;99605.16;219594;1268;140530;-86
2024/02/05 17:25:34;;;;;;;13.50;5.00;;;;;;;8.24;100.00;99608.20;220118;1268;140330;-85
2024/02/05 17:30:36;;;;;;;15.00;5.50;;;;;;;8.23;100.00;99608.81;219594;1269;139724;-84
2024/02/05 17:35:36;;;;;;;20.30;6.10;;;;;;;8.22;100.00;99622.91;219988;1268;138694;-83
2024/02/05 17:40:37;;;;;;;13.20;5.40;;;;;;;8.21;100.00;99627.29;219680;1267;139785;-85
2024/02/05 17:45:37;;;;;;;20.90;6.90;;;;;;;8.20;100.00;99635.65;220105;1264;138617;-84
2024/02/05 17:50:38;;;;;;;20.70;7.00;;;;;;;8.17;100.00;99635.52;219380;1264;139840;-85
2024/02/05 17:55:38;;;;;;;21.70;8.70;;;;;;;8.14;100.00;99633.16;220066;1264;139369;-85
2024/02/05 18:00:39;;;;;;;22.00;8.20;;;;;;;8.12;100.00;99633.55;219611;1267;140116;-87
2024/02/05 18:05:40;;;;;;;23.50;8.50;;;;;;;8.11;100.00;99633.43;220090;1267;138793;-85
2024/02/05 18:10:40;;;;;;;22.20;8.40;;;;;;;8.10;100.00;99632.11;220494;1267;140175;-86
2024/02/05 18:15:41;;;;;;;29.70;9.20;;;;;;;8.08;100.00;99633.42;220377;1267;138671;-85
2024/02/05 18:20:42;;;;;;;24.50;8.90;;;;;;;8.07;100.00;99635.45;219734;1264;140571;-85
2024/02/05 18:25:42;;;;;;;22.80;9.20;;;;;;;8.06;100.00;99634.97;219902;1267;138693;-85
2024/02/05 18:30:42;;;;;;;26.70;9.10;;;;;;;8.06;100.00;99632.30;219373;1267;139740;-85
2024/02/05 18:35:45;;;;;;;27.80;8.30;;;;;;;8.05;100.00;99628.54;220320;1264;138764;-84
2024/02/05 18:40:46;;;;;;;24.90;7.90;;;;;;;8.04;100.00;99627.83;219684;1267;140771;-83
2024/02/05 18:45:46;;;;;;;25.40;8.80;;;;;;;8.04;100.00;99628.77;220062;1264;138648;-84
2024/02/05 18:50:47;;;;;;;23.20;8.00;;;;;;;8.04;100.00;99624.93;219526;1264;140179;-83
2024/02/05 18:55:47;;;;;;;23.40;8.80;;;;;;;8.04;100.00;99629.33;220049;1264;138824;-84
2024/02/05 19:00:48;;;;;;;23.40;7.00;;;;;;;8.04;100.00;99636.29;219532;1264;139681;-82
2024/02/05 19:05:48;;;;;;;20.70;6.20;;;;;;;8.04;100.00;99620.31;220179;1264;139069;-82
2024/02/05 19:10:50;;;;;;;18.90;5.60;;;;;;;8.05;100.00;99618.28;219752;1264;139871;-83
2024/02/05 19:15:50;;;;;;;21.00;6.20;;;;;;;8.05;100.00;99623.38;220171;1264;138814;-83
2024/02/05 19:20:50;;;;;;;23.00;6.00;;;;;;;8.05;100.00;99621.89;219400;1267;139718;-83
2024/02/05 19:25:51;;;;;;;17.20;5.10;;;;;;;8.04;100.00;99614.06;220104;1264;139642;-83
2024/02/05 19:30:54;;;;;;;14.30;4.40;;;;;;;8.04;100.00;99613.50;219521;1264;140912;-83
2024/02/05 19:35:54;;;;;;;18.90;5.70;;;;;;;8.04;100.00;99613.19;220253;1267;139439;-82
2024/02/05 19:40:54;;;;;;;15.70;5.20;;;;;;;8.03;100.00;99614.52;220097;1263;139770;-84
2024/02/05 19:45:56;;;;;;;16.30;6.90;;;;;;;8.02;100.00;99615.68;220283;1264;138679;-83
2024/02/05 19:50:58;;;;;;;19.30;4.80;;;;;;;8.04;100.00;99617.11;219875;1264;139745;-84
2024/02/05 19:55:58;;;;;;;16.60;5.70;;;;;;;8.04;100.00;99619.39;220068;1264;138704;-84
2024/02/05 20:00:59;;;;;;;15.70;6.60;;;;;;;8.07;100.00;99607.19;219679;1264;140763;-83
2024/02/05 20:05:59;;;;;;;21.90;6.50;;;;;;;8.11;100.00;99608.54;220411;1264;138744;-87
2024/02/05 20:11:01;;;;;;;17.80;5.40;;;;;;;8.17;100.00;99609.53;220196;1264;140733;-88
2024/02/05 20:16:01;;;;;;;21.70;5.50;;;;;;;8.20;100.00;99600.89;220394;1267;137413;-87
2024/02/05 20:21:04;;;;;;;21.50;6.80;;;;;;;8.24;100.00;99595.69;219707;1264;140247;-87
2024/02/05 20:26:04;;;;;;;21.90;7.60;;;;;;;8.28;100.00;99586.55;220256;1264;138771;-86
2024/02/05 20:31:05;;;;;;;20.40;6.80;;;;;;;8.30;100.00;99590.55;219436;1264;139710;-85
2024/02/05 20:36:08;;;;;;;18.20;7.90;;;;;;;8.32;100.00;99587.13;220114;1264;138715;-89
2024/02/05 20:41:09;;;;;;;24.50;7.70;;;;;;;8.34;100.00;99596.14;219538;1267;139843;-87
2024/02/05 20:46:09;;;;;;;27.20;7.70;;;;;;;8.35;100.00;99584.23;219995;1263;138358;-85
2024/02/05 20:51:10;;;;;;;23.40;7.20;;;;;;;8.37;100.00;99576.25;219494;1267;142237;-85
2024/02/05 20:56:10;;;;;;;24.80;7.80;;;;;;;8.39;100.00;99566.16;220078;1264;138672;-86
2024/02/05 21:01:11;;;;;;;18.60;6.70;;;;;;;8.42;100.00;99571.20;219729;1267;139929;-87
2024/02/05 21:06:11;;;;;;;23.50;6.80;;;;;;;8.43;100.00;99582.63;220358;1264;138633;-87
2024/02/05 21:11:14;;;;;;;21.80;7.60;;;;;;;8.44;100.00;99583.73;220110;1264;140376;-87
2024/02/05 21:16:19;;;;;;;22.80;7.40;;;;;;;8.43;100.00;99578.33;221051;1264;97843;-85
2024/02/05 21:21:20;;;;;;;18.10;7.10;;;;;;;8.47;100.00;99578.20;219696;1264;139595;-90
2024/02/05 21:26:20;;;;;;;23.10;7.60;;;;;;;8.49;100.00;99580.55;220223;1264;138783;-91
2024/02/05 21:31:21;;;;;;;19.40;6.90;;;;;;;8.50;100.00;99583.95;219737;1266;139876;-90
2024/02/05 21:36:21;;;;;;;16.40;6.30;;;;;;;8.49;100.00;99578.14;220313;1264;138671;-90
2024/02/05 21:41:21;;;;;;;19.60;6.90;;;;;;;8.51;100.00;99575.32;219770;1264;140387;-89
2024/02/05 21:46:22;;;;;;;23.40;6.90;;;;;;;8.53;100.00;99578.15;220362;1264;98637;-88
2024/02/05 21:51:23;;;;;;;18.40;7.70;;;;;;;8.55;100.00;99594.30;219846;1264;139907;-92
2024/02/05 21:56:23;;;;;;;15.40;5.50;;;;;;;8.55;100.00;99587.41;220498;1264;138612;-90
2024/02/05 22:01:24;;;;;;;15.70;5.40;;;;;;;8.55;100.00;99587.33;219818;1267;139849;-89
2024/02/05 22:06:24;;;;;;;17.20;5.60;;;;;;;8.55;100.00;99589.36;220442;1264;138885;-89
2024/02/05 22:11:25;;;;;;;17.10;5.20;;;;;;;8.54;100.00;99595.95;220134;1264;140326;-89
2024/02/05 22:16:25;;;;;;;18.70;7.30;;;;;;;8.55;100.00;99606.54;220818;1263;96598;-91
2024/02/05 22:21:26;;;;;;;16.70;5.60;;;;;;;8.57;100.00;99614.45;219813;1266;139705;-90
2024/02/05 22:26:27;;;;;;;14.90;5.10;;;;;;;8.58;100.00;99624.02;220053;1264;280936;-94
2024/02/05 22:31:28;;;;;;;15.70;5.30;;;;;;;8.61;100.00;99632.50;220124;1264;140307;-86
2024/02/05 22:36:28;;;;;;;17.70;5.80;;;;;;;8.62;100.00;99621.63;220699;1264;139356;-89
2024/02/05 22:41:28;;;;;;;13.40;4.80;;;;;;;8.60;100.00;99624.98;220808;1264;139891;-88
2024/02/05 22:46:29;;;;;;;13.10;4.00;;;;;;;8.59;100.00;99630.91;221567;1264;98874;-94
2024/02/05 22:51:29;;;;;;;9.60;3.30;;;;;;;8.58;100.00;99628.89;220345;1267;139715;-89
2024/02/05 22:56:29;;;;;;;18.30;9.50;;;;;;;8.57;100.00;99634.45;220414;1264;139737;-90